Endeavor CRJ9 near New York on Sep 19th 2017, turbulence injures passenger

Last Update: September 20, 2017 / 15:18:31 GMT/Zulu time

Bookmark this article
Incident Facts

Date of incident
Sep 19, 2017

Classification
Accident

Flight number
9E-4147

Aircraft Registration
N925XJ

ICAO Type Designator
CRJ9

Airport ICAO Code
KLGA

An Endeavor Air Canadair CRJ-900 on behalf of Delta Airlines, registration N925XJ performing flight 9E-4147/DL-4147 from New York La Guardia,NY to Nashville,TN (USA), was climbing out of New York when the aircraft encountered turbulence causing injuries to a passenger. The aircraft continued the flight to Nashville, where the aircraft landed without further incident about 100 minutes after departure.

The FAA reported a passenger received minor injuries when the aircraft encountered turbulence during the initial climb.



Metars:
KLGA 191551Z 06014KT 10SM SCT028 BKN110 23/19 A2999 RMK AO2 RAB36E46 SLP154 P0000 T02330189=
KLGA 191451Z 05019G25KT 10SM SCT019 BKN160 23/19 A2999 RMK AO2 PK WND 04026/1437 SLP157 T02330189 58003=
KLGA 191351Z 04016KT 10SM BKN020 BKN150 23/19 A3001 RMK AO2 SLP160 T02280189=
KLGA 191251Z 04014G21KT 10SM BKN017 BKN150 22/19 A3000 RMK AO2 SLP160 T02220189 $=
KLGA 191151Z 04014KT 10SM OVC016 22/19 A3000 RMK AO2 SLP159 T02170189 10217 20217 58004 $=
KLGA 191051Z 03013G19KT 10SM OVC014 22/19 A3001 RMK AO2 SLP161 T02170194 $=
KLGA 190951Z 04013KT 10SM OVC012 22/19 A3001 RMK AO2 SLP162 T02170194 $=
Aircraft Registration Data
Registration mark
N925XJ
Country of Registration
United States
Date of Registration
BipdkkAddcbjbjcqg Subscribe to unlock
Manufacturer
BOMBARDIER INC
Aircraft Model / Type
CL-600-2D24
Number of Seats
ICAO Aircraft Type
CRJ9
Year of Manufacture
Serial Number
Aircraft Address / Mode S Code (HEX)
Engine Count
Engine Manufacturer
Engine Model
Engine Type
Pounds of Thrust
Main Owner
GinA lkhkdlhbiijheggcldkeechngAhqmiejpljpenmqgddqbA melgkfbekd AeqdlcddknfqcgcnfcpjAlAdqkqpiAkmAhphnfpq fnfAjldqgAddn Subscribe to unlock
Incident Facts

Date of incident
Sep 19, 2017

Classification
Accident

Flight number
9E-4147

Aircraft Registration
N925XJ

ICAO Type Designator
CRJ9

Airport ICAO Code
KLGA

This article is published under license from Avherald.com. © of text by Avherald.com.
Article source

You can read 2 more free articles without a subscription.

Subscribe now and continue reading without any limits!

Are you a subscriber? Login
Subscribe

Read unlimited articles and receive our daily update briefing. Gain better insights into what is happening in commercial aviation safety.

Free newsletter

Want to know more and stay ahead? Get our free weekly newsletter and join 5470 existing subscribers.

By subscribing, you accept our terms and conditions and confirm that you've read our privacy policy.

Send tip

Support AeroInside by sending a small tip amount.

Related articles

Newest articles

Subscribe today

Are you researching aviation incidents? Get access to AeroInside Insights, unlimited read access and receive the daily newsletter.

Pick your plan and subscribe

Partner

Blockaviation logo

A new way to document and demonstrate airworthiness compliance and aircraft value. Find out more.

Virtual Speech logo

ELITE Simulation Solutions is a leading global provider of Flight Simulation Training Devices, IFR training software as well as flight controls and related services. Find out more.

Get updates

Never miss an article from AeroInside. Subscribe to our free weekly newsletter and join 5470 existing subscribers.

By subscribing, you accept our terms and conditions and that you've read our privacy policy.

AeroInside Blog
Popular aircraft
Airbus A320
Boeing 737-800
Boeing 737-800 MAX
Popular airlines
American Airlines
United
Delta
Air Canada
Lufthansa
British Airways